Wildwood, FL (34785)

8:00 PM EDT on July 03, 2015 (GMT -0400)
Village Of Lake Deaton | | Change Station
CLOSE
Current Station
Personal Weather Station
Location: Wildwood, FL
Elevation: 82 ft
Nearby Weather Stations

Elev 82 ft 28.84 °N, 82.00 °W | Updated 19 seconds ago

Partly Cloudy
Partly Cloudy
79.6 °F
Feels Like 83 °F
N
0.0
Wind Variable Wind from North
Gusts 4.0 mph

Today
High -- | Low -- °F
--% Chance of Precip.
Yesterday
High -- | Low -- °F
Precip. -- in
6:34 AM 8:30 PM
Waning Gibbous, 95% visible
Pressure 30.09 in
Visibility 10.0 miles
Clouds Clear
Heat Index 83 °F
Dew Point 70 °F
Humidity 73%
Rainfall 0.00 in
Snow Depth Not available.
UV 0.0 out of 12
Pollen 2.60 out of 12
Air Quality Not available.
Flu Activity Not available.
METAR KLEE 032353Z AUTO 20008KT 10SM VCTS CLR 28/21 A3009 RMK AO2 LTG DSNT SE AND S PRESRR SLP189 T02780206 10344 20278 53016

More Conditions Fewer Conditions

Pressure 30.09 in
Visibility 10.0 miles
Clouds Clear
Heat Index 83 °F
Dew Point 70 °F
Humidity 73%
Rainfall 0.00 in
Snow Depth Not available.
UV 0.0 out of 12
Pollen 2.60 out of 12
Air Quality Not available.
Flu Activity Not available.
METAR KLEE 032353Z AUTO 20008KT 10SM VCTS CLR 28/21 A3009 RMK AO2 LTG DSNT SE AND S PRESRR SLP189 T02780206 10344 20278 53016

More Conditions Fewer Conditions

10-Day Weather Forecast

×

Almanac

Astronomy

Jul. 03, 2015 Rise Set
Actual Time
Civil Twilight
Nautical Twilight
Astronomical Twilight
Moon
Length of Visible Light
Length of Day
Tomorrow will be .
, % of the Moon is Illuminated

Today's Extremes

State Highs State Lows

Community

WunderPhotos

Upload Photos

1,834,823 photos uploaded!

WunderBlogs® & News

Nearby

Air Quality

  Air Quality AQ Index Pollutant
Not available.

Snow Depth

Station Depth Elevation

Earthquake Activity

City Distance Mag. Time & Date
Minimum magnitude displayed is 2.5.

Coastal Water Temperatures

Place Temperature

Stations

Nearby Weather Stations

Station Location Temp. Windchill Dew Point Humidity Wind Precip. Elev Updated Type